Time;durP1;ratioP1;P1;durP2;ratioP2;P2;SDS_P1;SDS_P2;PMS_P1;PMS_P2;Temp;Humidity;BMP_temperature;BMP_pressure;BME280_temperature;BME280_humidity;BME280_pressure;Samples;Min_cycle;Max_cycle;Signal;HPM_P1;HPM_P2
2021/01/08 00:00:09;;;;;;;0.80;0.80;;;6.80;76.20;;;;;;5092893;28;20054;-62
2021/01/08 00:02:37;;;;;;;1.52;1.33;;;6.80;76.20;;;;;;5093221;28;20487;-62
2021/01/08 00:05:04;;;;;;;1.48;1.38;;;6.80;76.80;;;;;;5093467;28;20027;-62
2021/01/08 00:07:33;;;;;;;2.08;1.38;;;6.80;76.10;;;;;;5092363;28;20032;-62
2021/01/08 00:09:59;;;;;;;2.65;1.48;;;6.80;76.00;;;;;;5093218;28;20100;-62
2021/01/08 00:12:29;;;;;;;2.78;1.52;;;6.80;76.10;;;;;;5093461;28;20085;-62
2021/01/08 00:14:54;;;;;;;3.08;1.60;;;6.80;76.20;;;;;;5092742;28;20072;-62
2021/01/08 00:17:20;;;;;;;2.72;1.50;;;6.80;76.30;;;;;;5093086;28;20024;-62
2021/01/08 00:19:46;;;;;;;3.25;1.88;;;6.80;76.40;;;;;;5092386;28;20024;-62
2021/01/08 00:22:11;;;;;;;2.60;1.50;;;6.70;76.40;;;;;;5093026;28;20485;-62
2021/01/08 00:24:37;;;;;;;2.92;1.30;;;6.70;76.60;;;;;;5092749;28;20051;-62
2021/01/08 00:27:03;;;;;;;4.45;1.40;;;6.70;76.60;;;;;;5092488;28;20103;-62
2021/01/08 00:29:29;;;;;;;1.17;1.08;;;6.70;76.80;;;;;;5092999;28;20074;-62
2021/01/08 00:31:55;;;;;;;1.42;1.23;;;6.60;77.00;;;;;;5093133;28;20024;-62
2021/01/08 00:34:20;;;;;;;1.27;1.10;;;6.60;77.10;;;;;;5092162;28;20031;-62
2021/01/08 00:36:52;;;;;;;1.63;1.23;;;6.60;77.20;;;;;;5092836;28;20028;-62
2021/01/08 00:39:18;;;;;;;1.38;1.15;;;6.60;77.30;;;;;;5092812;28;20452;-62
2021/01/08 00:41:44;;;;;;;1.10;1.00;;;6.60;77.40;;;;;;5092206;28;20040;-62
2021/01/08 00:44:10;;;;;;;1.75;1.10;;;6.60;77.40;;;;;;5091934;28;20032;-62
2021/01/08 00:46:37;;;;;;;1.10;1.00;;;6.70;77.50;;;;;;5092756;28;20040;-62
2021/01/08 00:49:04;;;;;;;1.13;1.00;;;6.60;77.40;;;;;;5091000;28;20051;-62
2021/01/08 00:51:30;;;;;;;2.90;1.10;;;6.70;77.50;;;;;;5096987;28;20101;-62
2021/01/08 00:53:56;;;;;;;1.77;1.10;;;6.70;77.50;;;;;;5096777;28;20028;-62
2021/01/08 00:56:22;;;;;;;0.80;0.80;;;6.70;77.50;;;;;;5096374;28;20055;-62
2021/01/08 00:58:53;;;;;;;1.55;1.30;;;6.70;77.50;;;;;;5095432;28;20024;-62
2021/01/08 01:01:18;;;;;;;0.98;0.90;;;6.70;77.50;;;;;;5096778;28;20051;-62
2021/01/08 01:03:45;;;;;;;0.88;0.88;;;6.70;77.50;;;;;;5096184;28;20039;-62
2021/01/08 01:06:11;;;;;;;0.90;0.90;;;6.70;77.40;;;;;;5096561;28;20024;-62
2021/01/08 01:08:37;;;;;;;0.95;0.93;;;6.60;77.30;;;;;;5096592;28;20039;-62
2021/01/08 01:11:03;;;;;;;1.77;1.20;;;6.70;77.40;;;;;;5096003;28;20035;-62
2021/01/08 01:13:29;;;;;;;3.53;1.08;;;6.60;77.40;;;;;;5096796;28;20040;-62
2021/01/08 01:15:55;;;;;;;0.90;0.90;;;6.60;77.30;;;;;;5096326;28;20097;-62
2021/01/08 01:18:21;;;;;;;1.48;1.02;;;6.70;77.40;;;;;;5095991;28;20056;-62
2021/01/08 01:20:47;;;;;;;2.13;1.20;;;6.70;77.50;;;;;;5096449;28;20059;-62
2021/01/08 01:23:14;;;;;;;1.10;1.00;;;6.60;77.40;;;;;;5095168;28;20139;-62
2021/01/08 01:25:40;;;;;;;1.80;1.05;;;6.70;77.60;;;;;;5096339;28;20116;-62
2021/01/08 01:28:06;;;;;;;3.30;1.10;;;6.60;77.60;;;;;;5096146;28;20115;-62
2021/01/08 01:30:32;;;;;;;1.50;1.27;;;6.70;77.80;;;;;;5095711;28;20039;-62
2021/01/08 01:32:58;;;;;;;0.77;0.77;;;6.70;77.80;;;;;;5096125;28;20040;-62
2021/01/08 01:35:25;;;;;;;3.30;1.23;;;6.70;77.70;;;;;;5096167;28;20028;-62
2021/01/08 01:37:51;;;;;;;1.38;1.27;;;6.80;78.30;;;;;;5108958;28;20089;-62
2021/01/08 01:40:18;;;;;;;1.95;0.82;;;6.70;77.60;;;;;;5096518;28;20032;-62
2021/01/08 01:42:44;;;;;;;1.00;0.90;;;6.80;77.60;;;;;;5096105;28;20085;-62
2021/01/08 01:45:10;;;;;;;0.75;0.63;;;6.80;77.50;;;;;;5095211;28;20409;-62
2021/01/08 01:47:35;;;;;;;2.83;0.88;;;6.80;77.50;;;;;;5095957;28;20024;-62
2021/01/08 01:50:02;;;;;;;1.20;0.90;;;6.80;77.40;;;;;;5095908;28;20371;-62
2021/01/08 01:52:28;;;;;;;1.92;0.90;;;6.80;77.30;;;;;;5095237;28;20078;-62
2021/01/08 01:54:54;;;;;;;0.50;0.50;;;6.80;77.30;;;;;;5096060;28;20036;-62
2021/01/08 01:57:19;;;;;;;2.78;0.80;;;6.80;77.20;;;;;;5095648;28;20035;-62
2021/01/08 01:59:45;;;;;;;1.25;0.90;;;6.80;77.20;;;;;;5095189;28;20155;-62
2021/01/08 02:02:41;;;;;;;1.35;0.90;;;6.80;77.20;;;;;;5094500;28;20084;-62
2021/01/08 02:05:09;;;;;;;1.23;0.98;;;6.80;77.20;;;;;;5095201;28;20039;-62
2021/01/08 02:07:42;;;;;;;0.90;0.90;;;6.80;77.10;;;;;;5094700;28;20479;-62
2021/01/08 02:10:09;;;;;;;0.90;0.90;;;6.80;77.00;;;;;;5095669;28;20064;-62
2021/01/08 02:12:36;;;;;;;1.33;0.70;;;6.80;77.00;;;;;;5094540;28;20829;-62
2021/01/08 02:15:03;;;;;;;0.73;0.70;;;6.90;77.10;;;;;;5095358;28;20596;-62
2021/01/08 02:17:30;;;;;;;0.57;0.57;;;6.80;77.00;;;;;;5095575;28;20077;-62
2021/01/08 02:20:05;;;;;;;0.75;0.75;;;6.80;76.90;;;;;;5094498;28;20769;-62
2021/01/08 02:22:48;;;;;;;0.70;0.70;;;6.80;76.90;;;;;;5095163;28;20032;-62
2021/01/08 02:25:19;;;;;;;0.98;0.88;;;6.80;76.80;;;;;;5094032;28;20131;-62
2021/01/08 02:28:05;;;;;;;0.63;0.63;;;6.80;76.60;;;;;;5094435;28;20472;-62
2021/01/08 02:30:33;;;;;;;0.80;0.80;;;6.80;76.60;;;;;;5095300;28;20035;-62
2021/01/08 02:32:59;;;;;;;0.65;0.65;;;6.80;76.40;;;;;;5095077;28;20036;-62
2021/01/08 02:35:25;;;;;;;4.55;0.68;;;6.80;76.30;;;;;;5094291;28;20345;-62
2021/01/08 02:37:51;;;;;;;0.70;0.70;;;6.90;76.20;;;;;;5095024;28;20058;-62
2021/01/08 02:40:18;;;;;;;3.22;0.73;;;6.80;76.10;;;;;;5094709;28;20059;-62
2021/01/08 02:42:47;;;;;;;0.75;0.75;;;6.80;75.90;;;;;;5094152;28;20531;-62
2021/01/08 02:45:14;;;;;;;0.82;0.82;;;6.90;75.90;;;;;;5094622;28;20534;-62
2021/01/08 02:47:40;;;;;;;0.57;0.57;;;6.80;75.70;;;;;;5094254;28;20028;-62
2021/01/08 02:50:06;;;;;;;1.25;1.15;;;6.80;75.70;;;;;;5094801;28;20036;-62
2021/01/08 02:52:34;;;;;;;0.75;0.60;;;6.90;75.70;;;;;;5094497;28;20028;-62
2021/01/08 02:55:01;;;;;;;2.10;0.60;;;6.90;75.70;;;;;;5093938;28;20459;-62
2021/01/08 02:57:28;;;;;;;0.93;0.60;;;6.90;75.70;;;;;;5094312;28;20040;-62
2021/01/08 02:59:56;;;;;;;1.42;0.82;;;6.80;75.50;;;;;;5094564;28;20110;-62
2021/01/08 03:02:24;;;;;;;0.77;0.70;;;6.80;75.50;;;;;;5093486;28;20043;-62
2021/01/08 03:04:49;;;;;;;0.65;0.65;;;6.80;75.50;;;;;;5094467;28;20483;-62
2021/01/08 03:07:25;;;;;;;0.70;0.70;;;6.80;75.40;;;;;;5094269;28;20049;-62
2021/01/08 03:09:51;;;;;;;1.15;0.90;;;6.80;75.40;;;;;;5093667;28;20472;-62
2021/01/08 03:12:18;;;;;;;1.15;0.70;;;6.90;75.40;;;;;;5094044;28;20117;-62
2021/01/08 03:14:45;;;;;;;5.45;0.75;;;6.90;75.40;;;;;;5094137;28;20165;-62
2021/01/08 03:17:11;;;;;;;1.42;1.08;;;6.90;76.00;;;;;;5093581;28;20036;-62
2021/01/08 03:19:37;;;;;;;0.73;0.73;;;6.80;75.30;;;;;;5093928;28;20486;-62
2021/01/08 03:22:03;;;;;;;1.65;1.00;;;6.80;75.40;;;;;;5094370;28;20509;-62
2021/01/08 03:24:29;;;;;;;0.80;0.80;;;6.80;75.40;;;;;;5093059;28;20076;-62
2021/01/08 03:26:54;;;;;;;1.27;1.00;;;6.80;75.40;;;;;;5094195;28;20056;-62
2021/01/08 03:29:20;;;;;;;1.45;0.90;;;6.80;75.50;;;;;;5094085;28;20103;-62
2021/01/08 03:31:46;;;;;;;1.15;1.02;;;6.80;75.50;;;;;;5093147;28;20451;-62
2021/01/08 03:34:11;;;;;;;0.68;0.60;;;6.80;75.60;;;;;;5093759;28;20031;-62
2021/01/08 03:36:37;;;;;;;2.17;0.82;;;6.80;75.60;;;;;;5093935;28;20062;-62
2021/01/08 03:39:03;;;;;;;1.30;1.10;;;6.80;75.70;;;;;;5098715;28;20012;-62
2021/01/08 03:41:29;;;;;;;1.63;0.85;;;6.80;75.90;;;;;;5094216;28;20038;-62
2021/01/08 03:43:54;;;;;;;2.38;1.02;;;6.80;75.90;;;;;;5093048;28;20391;-62
2021/01/08 03:46:20;;;;;;;2.35;0.82;;;6.80;75.90;;;;;;5093661;28;20025;-62
2021/01/08 03:48:46;;;;;;;1.10;1.00;;;6.80;76.00;;;;;;5093410;28;20059;-62
2021/01/08 03:51:11;;;;;;;0.90;0.90;;;6.80;76.00;;;;;;5093302;28;20115;-62
2021/01/08 03:53:37;;;;;;;0.88;0.88;;;6.80;76.10;;;;;;5093761;28;20035;-62
2021/01/08 03:56:03;;;;;;;1.02;0.90;;;6.90;76.20;;;;;;5093349;28;20111;-62
2021/01/08 03:58:29;;;;;;;0.70;0.70;;;6.80;76.10;;;;;;5093001;28;20071;-62
2021/01/08 04:00:54;;;;;;;1.15;0.98;;;6.80;76.10;;;;;;5093414;28;20487;-62
2021/01/08 04:03:20;;;;;;;1.02;1.00;;;6.80;76.10;;;;;;5093027;28;20131;-62
2021/01/08 04:05:45;;;;;;;1.52;1.08;;;6.90;76.20;;;;;;5092641;28;20059;-62
2021/01/08 04:08:11;;;;;;;0.90;0.90;;;6.80;76.10;;;;;;5093259;28;20036;-62
2021/01/08 04:10:37;;;;;;;1.77;1.17;;;6.90;76.20;;;;;;5093410;28;20028;-62
2021/01/08 04:13:02;;;;;;;1.00;0.90;;;6.90;76.20;;;;;;5092516;28;20024;-62
2021/01/08 04:15:28;;;;;;;1.50;1.10;;;6.90;76.20;;;;;;5093022;28;20487;-62
2021/01/08 04:17:53;;;;;;;4.13;1.27;;;6.90;76.20;;;;;;5093155;28;20032;-62
2021/01/08 04:20:19;;;;;;;2.50;1.30;;;6.90;76.20;;;;;;5092185;28;20058;-62
2021/01/08 04:22:45;;;;;;;1.77;1.30;;;6.90;76.20;;;;;;5093129;28;20079;-62
2021/01/08 04:25:11;;;;;;;0.85;0.85;;;6.90;76.30;;;;;;5092426;28;20047;-62
2021/01/08 04:27:37;;;;;;;1.05;1.05;;;6.90;76.30;;;;;;5092333;28;20162;-62
2021/01/08 04:30:06;;;;;;;2.25;0.93;;;6.90;76.20;;;;;;5093110;28;20111;-62
2021/01/08 04:32:32;;;;;;;1.33;1.10;;;6.90;76.20;;;;;;5092916;28;20035;-62
2021/01/08 04:34:58;;;;;;;0.90;0.90;;;6.90;76.20;;;;;;5092510;28;20376;-62
2021/01/08 04:37:24;;;;;;;1.48;1.23;;;6.90;76.20;;;;;;5092986;28;20421;-62
2021/01/08 04:39:49;;;;;;;3.13;1.17;;;6.90;76.20;;;;;;5093025;28;20070;-62
2021/01/08 04:42:15;;;;;;;0.82;0.82;;;6.80;76.20;;;;;;5091963;28;20039;-62
2021/01/08 04:44:42;;;;;;;2.08;1.10;;;6.90;76.20;;;;;;5092766;28;20086;-62
2021/01/08 04:47:11;;;;;;;1.33;1.10;;;6.80;76.30;;;;;;5091795;28;20407;-62
2021/01/08 04:49:38;;;;;;;1.55;1.10;;;6.80;76.30;;;;;;5092802;28;20020;-62
2021/01/08 04:52:07;;;;;;;1.08;0.90;;;6.80;76.40;;;;;;5092958;28;20119;-61
2021/01/08 04:54:33;;;;;;;1.65;1.20;;;6.80;76.40;;;;;;5092035;28;20090;-62
2021/01/08 04:56:59;;;;;;;1.42;1.13;;;6.90;76.50;;;;;;5100351;28;20019;-62
2021/01/08 04:59:25;;;;;;;1.80;1.10;;;6.80;76.40;;;;;;5109834;28;20024;-62
2021/01/08 05:01:52;;;;;;;2.75;1.00;;;6.80;76.40;;;;;;5106704;28;20035;-62
2021/01/08 05:04:18;;;;;;;1.33;1.10;;;6.90;76.50;;;;;;5112305;28;20122;-62
2021/01/08 05:06:44;;;;;;;0.98;0.98;;;6.80;76.40;;;;;;5109010;28;20468;-62
2021/01/08 05:09:09;;;;;;;1.60;0.95;;;6.80;76.50;;;;;;5109942;28;20064;-62
2021/01/08 05:11:35;;;;;;;1.25;1.15;;;6.80;76.50;;;;;;5108065;28;20103;-62
2021/01/08 05:14:07;;;;;;;1.23;1.10;;;6.90;76.60;;;;;;5110412;28;20122;-62
2021/01/08 05:16:33;;;;;;;2.78;1.08;;;6.80;76.50;;;;;;5108483;28;20023;-62
2021/01/08 05:19:01;;;;;;;1.90;1.33;;;6.90;76.60;;;;;;5112230;28;20027;-62
2021/01/08 05:21:28;;;;;;;1.15;1.08;;;6.90;76.60;;;;;;5110266;28;20027;-62
2021/01/08 05:23:55;;;;;;;2.13;0.85;;;6.90;76.50;;;;;;5108597;28;20055;-62
2021/01/08 05:26:21;;;;;;;0.95;0.90;;;6.90;76.50;;;;;;5109759;28;20031;-62
2021/01/08 05:29:07;;;;;;;1.02;1.00;;;6.90;76.60;;;;;;5107992;28;20024;-62
2021/01/08 05:31:34;;;;;;;1.13;0.95;;;6.90;76.60;;;;;;5107832;28;20043;-62
2021/01/08 05:34:00;;;;;;;1.33;1.02;;;6.80;76.40;;;;;;5109133;28;20032;-62
2021/01/08 05:36:26;;;;;;;2.00;1.13;;;6.80;76.40;;;;;;5111996;28;20031;-62
2021/01/08 05:38:57;;;;;;;0.98;0.88;;;6.80;76.40;;;;;;5111079;28;20027;-62
2021/01/08 05:41:24;;;;;;;1.40;1.05;;;6.80;76.40;;;;;;5113775;28;20535;-62
2021/01/08 05:43:50;;;;;;;2.63;0.82;;;6.80;76.40;;;;;;5108741;28;20027;-62
2021/01/08 05:46:37;;;;;;;2.72;1.20;;;6.80;76.40;;;;;;5104041;28;20394;-62
2021/01/08 05:49:05;;;;;;;1.90;1.40;;;6.80;76.40;;;;;;5098120;27;20085;-62
2021/01/08 05:51:32;;;;;;;2.72;1.38;;;6.80;76.40;;;;;;5095247;28;20032;-62
2021/01/08 05:54:00;;;;;;;1.45;1.27;;;6.80;76.40;;;;;;5095855;28;20040;-62
2021/01/08 05:56:26;;;;;;;1.90;1.10;;;6.70;76.40;;;;;;5095832;28;20036;-62
2021/01/08 05:58:52;;;;;;;2.05;1.10;;;6.70;76.40;;;;;;5095160;28;20032;-62
2021/01/08 06:01:18;;;;;;;1.27;1.17;;;6.70;76.50;;;;;;5095313;28;20127;-62
2021/01/08 06:03:46;;;;;;;2.90;1.17;;;6.70;76.60;;;;;;5095698;28;20027;-62
2021/01/08 06:06:14;;;;;;;1.70;1.20;;;6.70;76.60;;;;;;5094754;28;20133;-62
2021/01/08 06:08:49;;;;;;;1.25;1.10;;;6.70;76.70;;;;;;5095579;28;20468;-62
2021/01/08 06:11:29;;;;;;;1.80;1.30;;;6.70;76.60;;;;;;5095302;28;20467;-62
2021/01/08 06:14:00;;;;;;;2.05;1.38;;;6.70;76.60;;;;;;5105077;28;20027;-62
2021/01/08 06:16:35;;;;;;;1.10;0.98;;;6.70;76.50;;;;;;5113805;28;20408;-63
2021/01/08 06:19:02;;;;;;;4.47;1.23;;;6.70;76.50;;;;;;5111711;28;20039;-66
2021/01/08 06:21:44;;;;;;;1.52;1.05;;;6.70;76.40;;;;;;5109158;28;20493;-62
2021/01/08 06:24:12;;;;;;;1.70;1.30;;;6.60;76.40;;;;;;5104248;28;20044;-62
2021/01/08 06:26:38;;;;;;;3.05;1.50;;;6.60;76.30;;;;;;5105717;28;20395;-61
2021/01/08 06:29:15;;;;;;;2.72;1.60;;;6.60;76.40;;;;;;5111560;28;20016;-64
2021/01/08 06:31:52;;;;;;;2.35;1.35;;;6.60;76.40;;;;;;5110686;28;20035;-62
2021/01/08 06:34:28;;;;;;;3.92;1.20;;;6.60;76.50;;;;;;5111972;28;20421;-62
2021/01/08 06:37:10;;;;;;;1.70;1.30;;;6.60;76.50;;;;;;5110656;28;20024;-62
2021/01/08 06:39:39;;;;;;;1.33;1.23;;;6.60;76.50;;;;;;5112093;28;20498;-62
2021/01/08 06:42:05;;;;;;;1.60;1.30;;;6.60;76.50;;;;;;5112880;28;20032;-62
2021/01/08 06:44:32;;;;;;;1.45;1.20;;;6.60;76.50;;;;;;5110597;28;20033;-62
2021/01/08 06:46:59;;;;;;;0.95;0.90;;;6.50;76.40;;;;;;5110499;28;20032;-62
2021/01/08 06:49:27;;;;;;;2.28;1.30;;;6.50;76.40;;;;;;5110177;28;20055;-62
2021/01/08 06:51:53;;;;;;;2.75;1.42;;;6.60;76.40;;;;;;5112122;28;20398;-62
2021/01/08 06:54:19;;;;;;;1.52;1.42;;;6.50;77.00;;;;;;5111044;28;20118;-62
2021/01/08 06:56:46;;;;;;;1.92;1.63;;;6.60;76.50;;;;;;5112386;28;20042;-62
2021/01/08 06:59:13;;;;;;;1.95;1.35;;;6.60;76.50;;;;;;5101355;28;20020;-62
2021/01/08 07:01:56;;;;;;;3.80;1.50;;;6.50;77.00;;;;;;5104323;28;20384;-62
2021/01/08 07:04:26;;;;;;;2.05;1.63;;;6.50;76.40;;;;;;5106996;28;20364;-62
2021/01/08 07:06:54;;;;;;;2.40;1.50;;;6.60;76.40;;;;;;5107626;28;20062;-62
2021/01/08 07:09:20;;;;;;;1.60;1.25;;;6.50;76.30;;;;;;5105886;28;20039;-62
2021/01/08 07:11:54;;;;;;;1.30;1.20;;;6.60;76.30;;;;;;5106552;28;20027;-62
2021/01/08 07:14:22;;;;;;;2.92;1.42;;;6.60;76.20;;;;;;5113097;28;20032;-62
2021/01/08 07:16:49;;;;;;;4.03;1.60;;;6.60;76.20;;;;;;5107842;28;20104;-61
2021/01/08 07:19:18;;;;;;;1.38;1.20;;;6.60;76.20;;;;;;5106413;28;20493;-61
2021/01/08 07:21:58;;;;;;;1.35;1.25;;;6.70;76.20;;;;;;5102720;28;20608;-63
2021/01/08 07:24:32;;;;;;;2.50;1.35;;;6.60;76.10;;;;;;5108903;28;20056;-62
2021/01/08 07:27:15;;;;;;;;;;;6.70;76.10;;;;;;5108150;27;20036;-62
2021/01/08 07:29:54;;;;;;;1.63;1.40;;;6.70;76.10;;;;;;5100073;28;19908;-61
2021/01/08 07:32:36;;;;;;;2.05;1.42;;;6.70;75.60;;;;;;5108913;28;20403;-61
2021/01/08 07:35:32;;;;;;;2.05;1.35;;;6.60;75.60;;;;;;5108750;28;20027;-62
2021/01/08 07:37:59;;;;;;;1.80;1.30;;;6.70;75.60;;;;;;5107309;28;20036;-63
2021/01/08 07:40:26;;;;;;;1.92;1.38;;;6.70;75.50;;;;;;5108955;28;20031;-61
2021/01/08 07:43:05;;;;;;;1.85;1.33;;;6.60;75.40;;;;;;5109289;28;20058;-61
2021/01/08 07:45:59;;;;;;;1.95;1.30;;;6.60;75.40;;;;;;5111260;28;20028;-63
2021/01/08 07:48:28;;;;;;;2.67;1.30;;;6.60;75.30;;;;;;5109264;28;20027;-63
2021/01/08 07:51:05;;;;;;;2.47;1.30;;;6.60;75.20;;;;;;5108676;27;20031;-62
2021/01/08 07:53:44;;;;;;;1.40;1.30;;;6.60;75.00;;;;;;5110341;28;20032;-61
2021/01/08 07:56:15;;;;;;;1.70;1.23;;;6.60;75.00;;;;;;5102341;28;20031;-61
2021/01/08 07:58:54;;;;;;;2.53;1.08;;;6.60;74.90;;;;;;5107518;28;20540;-61
2021/01/08 08:01:20;;;;;;;1.67;1.55;;;6.60;74.90;;;;;;5104839;28;20711;-60
2021/01/08 08:03:45;;;;;;;2.38;1.45;;;6.60;74.90;;;;;;5103596;28;20020;-62
2021/01/08 08:06:11;;;;;;;4.55;1.63;;;6.50;74.90;;;;;;5103674;28;20065;-62
2021/01/08 08:08:42;;;;;;;1.50;1.38;;;6.60;74.90;;;;;;5098888;28;20043;-62
2021/01/08 08:11:16;;;;;;;2.22;1.42;;;6.60;75.00;;;;;;5105678;28;20088;-68
2021/01/08 08:13:45;;;;;;;1.42;1.33;;;6.60;75.00;;;;;;5095882;28;20103;-62
2021/01/08 08:16:11;;;;;;;2.22;1.67;;;6.50;74.90;;;;;;5098724;28;20380;-63
2021/01/08 08:18:53;;;;;;;1.88;1.27;;;6.50;74.90;;;;;;5108498;28;20022;-62
2021/01/08 08:21:19;;;;;;;1.58;1.48;;;6.50;75.00;;;;;;5108748;28;20078;-60
2021/01/08 08:23:55;;;;;;;2.60;1.70;;;6.50;74.90;;;;;;5108129;28;20071;-61
2021/01/08 08:26:22;;;;;;;3.28;1.70;;;6.50;75.10;;;;;;5101439;28;20055;-61
2021/01/08 08:28:57;;;;;;;2.63;1.60;;;6.50;75.10;;;;;;5102679;28;20152;-60
2021/01/08 08:31:27;;;;;;;3.08;1.50;;;6.50;75.30;;;;;;5108826;28;20041;-60
2021/01/08 08:33:52;;;;;;;2.90;1.58;;;6.50;75.30;;;;;;5109520;28;20027;-61
2021/01/08 08:36:22;;;;;;;2.22;1.58;;;6.50;75.30;;;;;;5110183;28;20391;-66
2021/01/08 08:39:07;;;;;;;2.65;1.48;;;6.50;75.40;;;;;;5109670;28;20107;-59
2021/01/08 08:41:35;;;;;;;2.75;1.70;;;6.50;75.40;;;;;;5095191;28;20036;-60
2021/01/08 08:44:09;;;;;;;3.20;1.67;;;6.60;75.50;;;;;;5109712;28;20089;-60
2021/01/08 08:46:50;;;;;;;1.90;1.58;;;6.50;75.40;;;;;;5107277;28;20114;-60
2021/01/08 08:49:18;;;;;;;4.63;2.17;;;6.50;75.40;;;;;;5104820;28;20027;-60
2021/01/08 08:51:48;;;;;;;3.47;2.25;;;6.50;75.40;;;;;;5110281;28;20031;-60
2021/01/08 08:54:15;;;;;;;7.00;2.90;;;6.50;75.40;;;;;;5107863;28;20089;-60
2021/01/08 08:56:57;;;;;;;4.30;2.28;;;6.50;75.50;;;;;;5105320;28;20028;-60
2021/01/08 08:59:43;;;;;;;4.88;2.25;;;6.50;75.50;;;;;;5100050;28;20081;-60
2021/01/08 09:02:10;;;;;;;3.95;2.03;;;6.50;75.60;;;;;;5107954;28;20390;-60
2021/01/08 09:04:36;;;;;;;5.10;2.20;;;6.50;76.20;;;;;;5107534;28;20032;-60
2021/01/08 09:07:18;;;;;;;3.45;1.63;;;6.60;75.70;;;;;;5110227;28;20050;-60
2021/01/08 09:09:47;;;;;;;3.45;1.75;;;6.60;76.40;;;;;;5108781;28;20039;-60
2021/01/08 09:12:38;;;;;;;2.60;1.60;;;6.50;75.70;;;;;;5106290;28;20028;-61
2021/01/08 09:15:13;;;;;;;3.85;1.73;;;6.50;75.70;;;;;;5103048;28;20024;-60
2021/01/08 09:17:42;;;;;;;3.92;1.95;;;6.60;75.70;;;;;;5112472;28;20062;-60
2021/01/08 09:20:14;;;;;;;2.05;1.42;;;6.60;75.70;;;;;;5102338;28;20047;-61
2021/01/08 09:22:40;;;;;;;3.25;1.73;;;6.50;75.70;;;;;;5109541;28;20043;-60
2021/01/08 09:25:08;;;;;;;2.80;1.45;;;6.60;75.80;;;;;;5113540;28;20399;-60
2021/01/08 09:27:34;;;;;;;2.83;1.70;;;6.60;75.90;;;;;;5103571;28;20024;-59
2021/01/08 09:30:13;;;;;;;4.93;1.88;;;6.60;75.90;;;;;;5105579;28;20028;-61
2021/01/08 09:32:38;;;;;;;2.70;1.92;;;6.60;75.90;;;;;;5112487;28;20031;-61
2021/01/08 09:35:08;;;;;;;2.85;1.80;;;6.60;75.90;;;;;;5110822;28;20012;-61
2021/01/08 09:37:49;;;;;;;3.08;1.70;;;6.60;76.00;;;;;;5112228;28;20040;-60
2021/01/08 09:40:16;;;;;;;2.88;1.70;;;6.60;76.00;;;;;;5099812;28;20024;-61
2021/01/08 09:42:43;;;;;;;3.00;1.88;;;6.60;76.00;;;;;;5104606;28;20036;-61
2021/01/08 09:45:21;;;;;;;2.92;1.73;;;6.50;76.70;;;;;;5109812;28;20407;-61
2021/01/08 09:47:47;;;;;;;4.78;1.80;;;6.50;76.20;;;;;;5103394;28;20055;-62
2021/01/08 09:50:23;;;;;;;3.58;1.90;;;6.50;76.90;;;;;;5094190;28;20491;-61
2021/01/08 09:52:50;;;;;;;3.83;2.10;;;6.50;76.40;;;;;;5103742;28;20046;-62
2021/01/08 09:55:44;;;;;;;4.18;2.33;;;6.50;76.50;;;;;;5106396;28;20104;-60
2021/01/08 09:58:14;;;;;;;4.72;2.72;;;6.40;76.60;;;;;;5087172;28;20028;-61
2021/01/08 10:00:40;;;;;;;2.53;1.73;;;6.50;76.70;;;;;;5101871;27;20028;-60
2021/01/08 10:03:17;;;;;;;2.92;2.00;;;6.50;76.70;;;;;;5105653;28;20620;-67
2021/01/08 10:05:43;;;;;;;3.22;2.47;;;6.40;76.80;;;;;;5111141;28;20106;-61
2021/01/08 10:08:18;;;;;;;2.90;2.03;;;6.40;76.80;;;;;;5113062;28;20107;-61
2021/01/08 10:10:43;;;;;;;3.28;1.83;;;6.40;77.00;;;;;;5106530;28;20030;-60
2021/01/08 10:13:17;;;;;;;3.58;2.30;;;6.30;77.00;;;;;;5108587;28;20036;-61
2021/01/08 10:15:48;;;;;;;3.83;2.58;;;6.30;77.20;;;;;;5103250;28;20028;-62
2021/01/08 10:18:15;;;;;;;2.65;1.80;;;6.30;77.30;;;;;;5106617;28;20043;-64
2021/01/08 10:20:50;;;;;;;4.15;1.80;;;6.40;77.50;;;;;;5113085;28;20023;-63
2021/01/08 10:23:18;;;;;;;4.85;1.95;;;6.30;77.60;;;;;;5110603;28;20047;-62
2021/01/08 10:25:44;;;;;;;2.88;1.80;;;6.30;77.60;;;;;;5113118;28;20110;-61
2021/01/08 10:28:17;;;;;;;4.85;1.60;;;6.30;77.70;;;;;;5112419;28;20112;-61
2021/01/08 10:30:45;;;;;;;1.73;1.40;;;6.20;77.80;;;;;;5106786;28;20031;-61
2021/01/08 10:33:11;;;;;;;2.88;1.63;;;6.20;77.80;;;;;;5112328;28;20046;-62
2021/01/08 10:35:38;;;;;;;5.20;1.75;;;6.20;77.90;;;;;;5105410;28;20040;-61
2021/01/08 10:38:04;;;;;;;2.60;1.63;;;6.20;78.00;;;;;;5094442;28;20498;-60
2021/01/08 10:40:30;;;;;;;6.03;2.00;;;6.20;78.10;;;;;;5094210;28;20028;-60
2021/01/08 10:42:56;;;;;;;2.55;1.50;;;6.20;78.30;;;;;;5105401;28;20036;-60
2021/01/08 10:45:22;;;;;;;6.38;1.52;;;6.20;78.40;;;;;;5096723;28;20027;-60
2021/01/08 10:47:48;;;;;;;2.78;1.77;;;6.20;78.40;;;;;;5100878;28;20032;-60
2021/01/08 10:50:14;;;;;;;4.82;1.73;;;6.20;78.60;;;;;;5102814;28;20023;-60
2021/01/08 10:52:41;;;;;;;2.13;1.40;;;6.30;78.90;;;;;;5108105;28;20479;-61
2021/01/08 10:55:09;;;;;;;2.45;1.67;;;6.30;79.00;;;;;;5099175;28;20032;-65
2021/01/08 10:57:35;;;;;;;2.80;1.60;;;6.30;79.20;;;;;;5108522;27;20464;-60
2021/01/08 11:00:02;;;;;;;1.50;1.20;;;6.30;79.10;;;;;;5112022;28;20107;-60
2021/01/08 11:02:28;;;;;;;4.35;2.05;;;6.30;79.10;;;;;;5112263;28;20104;-61
2021/01/08 11:04:53;;;;;;;3.13;1.98;;;6.40;79.30;;;;;;5107576;28;20017;-59
2021/01/08 11:07:19;;;;;;;4.68;1.80;;;6.40;79.40;;;;;;5101421;28;20443;-60
2021/01/08 11:09:45;;;;;;;4.13;2.38;;;6.40;79.50;;;;;;5101172;28;20027;-60
2021/01/08 11:12:10;;;;;;;3.20;2.10;;;6.40;79.60;;;;;;5106848;28;20033;-60
2021/01/08 11:14:36;;;;;;;5.28;1.98;;;6.50;79.60;;;;;;5102859;28;20024;-60
2021/01/08 11:17:02;;;;;;;4.82;2.10;;;6.50;79.80;;;;;;5099382;28;20036;-60
2021/01/08 11:19:27;;;;;;;4.05;2.00;;;6.60;80.00;;;;;;5104478;28;20036;-61
2021/01/08 11:21:56;;;;;;;5.30;2.05;;;6.60;80.10;;;;;;5102843;28;20036;-61
2021/01/08 11:24:22;;;;;;;4.25;2.20;;;6.60;80.20;;;;;;5103554;28;20051;-60
2021/01/08 11:26:48;;;;;;;5.50;2.40;;;6.70;80.30;;;;;;5106865;28;20023;-60
2021/01/08 11:29:13;;;;;;;4.40;2.13;;;6.70;80.40;;;;;;5109796;28;20095;-63
2021/01/08 11:31:40;;;;;;;3.83;2.15;;;6.70;80.40;;;;;;5111144;28;20031;-61
2021/01/08 11:34:07;;;;;;;3.90;2.13;;;6.80;80.50;;;;;;5110194;28;20047;-62
2021/01/08 11:36:33;;;;;;;6.22;2.05;;;6.80;80.50;;;;;;5109924;28;20020;-61
2021/01/08 11:38:59;;;;;;;7.68;2.70;;;6.90;80.50;;;;;;5111410;28;20088;-62
2021/01/08 11:41:25;;;;;;;3.15;2.08;;;6.90;80.50;;;;;;5112057;28;20499;-61
2021/01/08 11:43:51;;;;;;;4.05;2.20;;;6.90;80.40;;;;;;5111565;28;20114;-62
2021/01/08 11:46:21;;;;;;;4.22;2.28;;;7.00;80.60;;;;;;5110281;28;20023;-61
2021/01/08 11:48:51;;;;;;;3.78;2.30;;;7.00;80.50;;;;;;5109632;28;20047;-62
2021/01/08 11:51:17;;;;;;;7.03;2.35;;;7.10;80.50;;;;;;5110806;28;20020;-62
2021/01/08 11:53:44;;;;;;;4.57;2.17;;;7.10;80.50;;;;;;5112602;27;20027;-61
2021/01/08 11:56:10;;;;;;;5.38;2.30;;;7.10;80.50;;;;;;5108908;28;20117;-62
2021/01/08 11:58:37;;;;;;;4.25;2.40;;;7.20;80.50;;;;;;5110801;28;20420;-61
2021/01/08 12:01:07;;;;;;;4.38;2.40;;;7.20;80.40;;;;;;5109367;28;20026;-61
2021/01/08 12:03:35;;;;;;;2.90;2.00;;;7.20;80.30;;;;;;5111770;28;20499;-61
2021/01/08 12:06:00;;;;;;;3.55;1.95;;;7.30;80.20;;;;;;5108532;28;20052;-61
2021/01/08 12:08:26;;;;;;;7.38;2.50;;;7.30;80.10;;;;;;5110412;28;20411;-62
2021/01/08 12:10:52;;;;;;;4.15;2.50;;;7.30;80.10;;;;;;5109533;28;20028;-61
2021/01/08 12:13:18;;;;;;;7.20;2.42;;;7.30;80.00;;;;;;5111577;28;20031;-62
2021/01/08 12:15:44;;;;;;;6.20;2.38;;;7.30;79.90;;;;;;5111737;28;20019;-62
2021/01/08 12:18:11;;;;;;;6.40;2.50;;;7.40;79.80;;;;;;5107349;28;20042;-61
2021/01/08 12:20:37;;;;;;;3.53;2.20;;;7.40;79.60;;;;;;5110324;28;20054;-63
2021/01/08 12:23:06;;;;;;;4.38;2.20;;;7.40;79.40;;;;;;5109296;28;20460;-61
2021/01/08 12:25:35;;;;;;;3.55;2.20;;;7.40;79.30;;;;;;5110528;28;20085;-61
2021/01/08 12:28:03;;;;;;;4.97;2.38;;;7.40;79.20;;;;;;5111319;28;20069;-62
2021/01/08 12:30:29;;;;;;;6.80;2.15;;;7.40;79.00;;;;;;5109189;28;20510;-61
2021/01/08 12:32:55;;;;;;;5.07;2.58;;;7.40;78.90;;;;;;5107450;28;20023;-61
2021/01/08 12:35:22;;;;;;;2.65;1.80;;;7.50;78.90;;;;;;5109426;28;20027;-63
2021/01/08 12:37:49;;;;;;;5.35;2.30;;;7.50;78.80;;;;;;5110063;28;20063;-61
2021/01/08 12:40:15;;;;;;;4.00;2.00;;;7.40;78.60;;;;;;5105102;28;20031;-61
2021/01/08 12:42:41;;;;;;;5.95;2.15;;;7.50;78.50;;;;;;5111443;28;20046;-62
2021/01/08 12:45:08;;;;;;;3.13;1.90;;;7.50;78.50;;;;;;5094878;28;20052;-62
2021/01/08 12:47:34;;;;;;;4.13;2.20;;;7.50;78.20;;;;;;5100390;28;20570;-62
2021/01/08 12:50:00;;;;;;;7.68;2.40;;;7.50;78.20;;;;;;5106113;28;20106;-61
2021/01/08 12:52:28;;;;;;;6.05;2.47;;;7.50;78.20;;;;;;5109550;28;20429;-62
2021/01/08 12:54:54;;;;;;;6.53;2.28;;;7.50;78.20;;;;;;5107707;28;20506;-62
2021/01/08 12:57:20;;;;;;;7.05;2.05;;;7.50;78.30;;;;;;5096855;28;20059;-61
2021/01/08 12:59:45;;;;;;;6.90;3.40;;;7.50;78.20;;;;;;5109623;28;20049;-61
2021/01/08 13:02:11;;;;;;;3.13;1.92;;;7.50;78.10;;;;;;5107756;28;20044;-63
2021/01/08 13:04:42;;;;;;;4.18;1.80;;;7.60;78.00;;;;;;5105845;28;20027;-61